Terminal Aerodrome Forecast
Issued by NWS Charleston, WV

Current Version | Previous Version | Graphics & Text | Print | Product List | Glossary On
Versions: 1 2 3 4 5 6 7 8 9 10 11 12 13 14 15 16 17 18 19 20
236
FTUS41 KRLX 021809 RRA
TAFPKB
TAF
KPKB 021809Z 0218/0318 28009G15KT P6SM BKN035
     FM022000 28008KT P6SM VCTS BKN035CB
     FM030100 VRB03KT 5SM SHRA VCTS SCT008 BKN020CB
     FM030500 02004KT 1 1/2SM BR BKN008
     FM031100 33005KT 3SM BR BKN008
     FM031300 29005KT 6SM HZ BKN010
     FM031500 29008KT P6SM BKN025=

USA.gov is the U.S. government's official web portal to all federal, state and local government web resources and services.